sensor_id;sensor_type;location;lat;lon;timestamp;temperature;humidity
3208;DHT22;1616;52.394;9.756;2022-09-21T00:00:45;9.10;1.00
3208;DHT22;1616;52.394;9.756;2022-09-21T00:03:12;9.10;1.00
3208;DHT22;1616;52.394;9.756;2022-09-21T00:05:38;9.10;1.00
3208;DHT22;1616;52.394;9.756;2022-09-21T00:08:05;9.10;1.00
3208;DHT22;1616;52.394;9.756;2022-09-21T00:10:32;9.10;1.00
3208;DHT22;1616;52.394;9.756;2022-09-21T00:12:58;9.00;1.00
3208;DHT22;1616;52.394;9.756;2022-09-21T00:15:24;9.00;1.00
3208;DHT22;1616;52.394;9.756;2022-09-21T00:17:54;9.00;1.00
3208;DHT22;1616;52.394;9.756;2022-09-21T00:20:20;9.00;1.00
3208;DHT22;1616;52.394;9.756;2022-09-21T00:22:47;9.00;1.00
3208;DHT22;1616;52.394;9.756;2022-09-21T00:25:13;9.00;1.00
3208;DHT22;1616;52.394;9.756;2022-09-21T00:27:38;9.00;1.00
3208;DHT22;1616;52.394;9.756;2022-09-21T00:30:05;9.00;1.00
3208;DHT22;1616;52.394;9.756;2022-09-21T00:32:33;8.90;1.00
3208;DHT22;1616;52.394;9.756;2022-09-21T00:34:59;8.90;1.00
3208;DHT22;1616;52.394;9.756;2022-09-21T00:37:27;8.90;1.00
3208;DHT22;1616;52.394;9.756;2022-09-21T00:39:53;8.90;1.00
3208;DHT22;1616;52.394;9.756;2022-09-21T00:42:28;8.90;1.00
3208;DHT22;1616;52.394;9.756;2022-09-21T00:44:54;8.80;1.00
3208;DHT22;1616;52.394;9.756;2022-09-21T00:47:41;8.80;1.00
3208;DHT22;1616;52.394;9.756;2022-09-21T00:50:19;8.80;1.00
3208;DHT22;1616;52.394;9.756;2022-09-21T00:52:51;8.70;1.00
3208;DHT22;1616;52.394;9.756;2022-09-21T00:55:40;8.70;1.00
3208;DHT22;1616;52.394;9.756;2022-09-21T00:58:10;8.70;1.00
3208;DHT22;1616;52.394;9.756;2022-09-21T01:00:37;8.70;1.00
3208;DHT22;1616;52.394;9.756;2022-09-21T01:03:05;8.70;1.00
3208;DHT22;1616;52.394;9.756;2022-09-21T01:05:33;8.70;1.00
3208;DHT22;1616;52.394;9.756;2022-09-21T01:08:00;8.70;1.00
3208;DHT22;1616;52.394;9.756;2022-09-21T01:10:30;8.70;1.00
3208;DHT22;1616;52.394;9.756;2022-09-21T01:16:03;8.70;1.20
3208;DHT22;1616;52.394;9.756;2022-09-21T01:18:42;8.70;1.20
3208;DHT22;1616;52.394;9.756;2022-09-21T01:21:21;8.70;1.10
3208;DHT22;1616;52.394;9.756;2022-09-21T01:29:27;8.60;1.40
3208;DHT22;1616;52.394;9.756;2022-09-21T01:34:38;8.70;1.50
3208;DHT22;1616;52.394;9.756;2022-09-21T01:37:12;8.70;1.50
3208;DHT22;1616;52.394;9.756;2022-09-21T01:39:43;8.60;1.40
3208;DHT22;1616;52.394;9.756;2022-09-21T01:42:09;8.60;1.60
3208;DHT22;1616;52.394;9.756;2022-09-21T01:44:38;8.60;1.50
3208;DHT22;1616;52.394;9.756;2022-09-21T01:47:07;8.60;1.60
3208;DHT22;1616;52.394;9.756;2022-09-21T01:49:47;8.60;1.60
3208;DHT22;1616;52.394;9.756;2022-09-21T01:52:26;8.60;1.40
3208;DHT22;1616;52.394;9.756;2022-09-21T01:54:57;8.60;1.40
3208;DHT22;1616;52.394;9.756;2022-09-21T01:57:42;8.60;1.30
3208;DHT22;1616;52.394;9.756;2022-09-21T02:00:10;8.50;1.30
3208;DHT22;1616;52.394;9.756;2022-09-21T02:02:52;8.50;1.40
3208;DHT22;1616;52.394;9.756;2022-09-21T02:05:21;8.50;1.50
3208;DHT22;1616;52.394;9.756;2022-09-21T02:07:50;8.50;1.60
3208;DHT22;1616;52.394;9.756;2022-09-21T02:10:22;8.50;1.80
3208;DHT22;1616;52.394;9.756;2022-09-21T02:12:53;8.50;2.00
3208;DHT22;1616;52.394;9.756;2022-09-21T02:15:23;8.50;1.90
3208;DHT22;1616;52.394;9.756;2022-09-21T02:18:07;8.50;2.20
3208;DHT22;1616;52.394;9.756;2022-09-21T02:20:43;8.50;1.80
3208;DHT22;1616;52.394;9.756;2022-09-21T02:24:15;8.50;1.80
3208;DHT22;1616;52.394;9.756;2022-09-21T02:26:33;8.50;1.70
3208;DHT22;1616;52.394;9.756;2022-09-21T02:29:15;8.50;2.00
3208;DHT22;1616;52.394;9.756;2022-09-21T02:31:49;8.50;1.30
3208;DHT22;1616;52.394;9.756;2022-09-21T02:34:24;8.40;1.10
3208;DHT22;1616;52.394;9.756;2022-09-21T02:36:57;8.40;1.00
3208;DHT22;1616;52.394;9.756;2022-09-21T02:39:39;8.40;1.00
3208;DHT22;1616;52.394;9.756;2022-09-21T02:42:17;8.30;1.00
3208;DHT22;1616;52.394;9.756;2022-09-21T02:44:59;8.30;1.00
3208;DHT22;1616;52.394;9.756;2022-09-21T02:48:07;8.30;1.00
3208;DHT22;1616;52.394;9.756;2022-09-21T02:50:54;8.30;1.00
3208;DHT22;1616;52.394;9.756;2022-09-21T02:53:31;8.20;1.00
3208;DHT22;1616;52.394;9.756;2022-09-21T02:55:59;8.20;1.00
3208;DHT22;1616;52.394;9.756;2022-09-21T02:58:37;8.20;1.00
3208;DHT22;1616;52.394;9.756;2022-09-21T03:01:05;8.20;1.00
3208;DHT22;1616;52.394;9.756;2022-09-21T03:03:33;8.10;1.00
3208;DHT22;1616;52.394;9.756;2022-09-21T03:05:59;8.10;1.00
3208;DHT22;1616;52.394;9.756;2022-09-21T03:08:26;8.10;1.00
3208;DHT22;1616;52.394;9.756;2022-09-21T03:10:52;8.10;1.00
3208;DHT22;1616;52.394;9.756;2022-09-21T03:13:18;8.10;1.20
3208;DHT22;1616;52.394;9.756;2022-09-21T03:15:44;8.10;1.40
3208;DHT22;1616;52.394;9.756;2022-09-21T03:18:11;8.10;1.60
3208;DHT22;1616;52.394;9.756;2022-09-21T03:20:39;8.10;1.80
3208;DHT22;1616;52.394;9.756;2022-09-21T03:23:06;8.10;1.80
3208;DHT22;1616;52.394;9.756;2022-09-21T03:25:32;8.10;1.80
3208;DHT22;1616;52.394;9.756;2022-09-21T03:27:58;8.10;2.50
3208;DHT22;1616;52.394;9.756;2022-09-21T03:30:25;8.10;2.00
3208;DHT22;1616;52.394;9.756;2022-09-21T03:32:52;8.10;2.10
3208;DHT22;1616;52.394;9.756;2022-09-21T03:35:19;8.10;2.20
3208;DHT22;1616;52.394;9.756;2022-09-21T03:37:46;8.10;2.20
3208;DHT22;1616;52.394;9.756;2022-09-21T03:40:12;8.10;2.30
3208;DHT22;1616;52.394;9.756;2022-09-21T03:42:39;8.10;2.20
3208;DHT22;1616;52.394;9.756;2022-09-21T03:45:05;8.10;2.40
3208;DHT22;1616;52.394;9.756;2022-09-21T03:47:33;8.10;2.30
3208;DHT22;1616;52.394;9.756;2022-09-21T03:49:58;8.10;2.20
3208;DHT22;1616;52.394;9.756;2022-09-21T03:52:24;8.10;2.30
3208;DHT22;1616;52.394;9.756;2022-09-21T03:54:50;8.20;3.40
3208;DHT22;1616;52.394;9.756;2022-09-21T03:57:16;8.50;7.90
3208;DHT22;1616;52.394;9.756;2022-09-21T03:59:41;8.70;4.90
3208;DHT22;1616;52.394;9.756;2022-09-21T04:02:07;8.80;2.80
3208;DHT22;1616;52.394;9.756;2022-09-21T04:04:33;8.80;2.10
3208;DHT22;1616;52.394;9.756;2022-09-21T04:06:59;8.80;2.20
3208;DHT22;1616;52.394;9.756;2022-09-21T04:09:25;8.80;1.40
3208;DHT22;1616;52.394;9.756;2022-09-21T04:11:51;8.80;1.00
3208;DHT22;1616;52.394;9.756;2022-09-21T04:14:19;8.70;1.00
3208;DHT22;1616;52.394;9.756;2022-09-21T04:16:45;8.60;1.00
3208;DHT22;1616;52.394;9.756;2022-09-21T04:19:11;8.60;1.00
3208;DHT22;1616;52.394;9.756;2022-09-21T04:21:37;8.50;1.00
3208;DHT22;1616;52.394;9.756;2022-09-21T04:24:03;8.40;1.00
3208;DHT22;1616;52.394;9.756;2022-09-21T04:26:32;8.70;6.10
3208;DHT22;1616;52.394;9.756;2022-09-21T04:28:58;9.10;4.90
3208;DHT22;1616;52.394;9.756;2022-09-21T04:31:25;9.30;3.10
3208;DHT22;1616;52.394;9.756;2022-09-21T04:33:54;9.40;1.90
3208;DHT22;1616;52.394;9.756;2022-09-21T04:36:21;9.50;1.00
3208;DHT22;1616;52.394;9.756;2022-09-21T04:38:48;9.50;1.00
3208;DHT22;1616;52.394;9.756;2022-09-21T04:41:15;9.50;1.00
3208;DHT22;1616;52.394;9.756;2022-09-21T04:43:45;9.70;3.50
3208;DHT22;1616;52.394;9.756;2022-09-21T04:46:13;10.00;3.90
3208;DHT22;1616;52.394;9.756;2022-09-21T04:48:40;10.50;5.20
3208;DHT22;1616;52.394;9.756;2022-09-21T04:51:07;11.00;5.30
3208;DHT22;1616;52.394;9.756;2022-09-21T04:53:34;11.40;4.80
3208;DHT22;1616;52.394;9.756;2022-09-21T04:56:00;11.70;3.50
3208;DHT22;1616;52.394;9.756;2022-09-21T04:58:26;11.90;1.50
3208;DHT22;1616;52.394;9.756;2022-09-21T05:00:52;12.10;1.30
3208;DHT22;1616;52.394;9.756;2022-09-21T05:03:19;12.10;1.00
3208;DHT22;1616;52.394;9.756;2022-09-21T05:05:50;11.90;1.00
3208;DHT22;1616;52.394;9.756;2022-09-21T05:08:17;11.60;1.00
3208;DHT22;1616;52.394;9.756;2022-09-21T05:11:03;11.20;1.00
3208;DHT22;1616;52.394;9.756;2022-09-21T05:13:29;10.80;1.00
3208;DHT22;1616;52.394;9.756;2022-09-21T05:15:54;10.50;1.00
3208;DHT22;1616;52.394;9.756;2022-09-21T05:18:20;10.20;1.00
3208;DHT22;1616;52.394;9.756;2022-09-21T05:20:57;9.90;1.00
3208;DHT22;1616;52.394;9.756;2022-09-21T05:23:23;9.70;1.00
3208;DHT22;1616;52.394;9.756;2022-09-21T05:25:49;9.60;1.00
3208;DHT22;1616;52.394;9.756;2022-09-21T05:28:18;9.40;1.00
3208;DHT22;1616;52.394;9.756;2022-09-21T05:30:47;9.30;1.00
3208;DHT22;1616;52.394;9.756;2022-09-21T05:33:18;9.30;1.00
3208;DHT22;1616;52.394;9.756;2022-09-21T05:38:26;9.70;5.70
3208;DHT22;1616;52.394;9.756;2022-09-21T05:40:53;10.10;7.80
3208;DHT22;1616;52.394;9.756;2022-09-21T05:43:20;10.50;9.00
3208;DHT22;1616;52.394;9.756;2022-09-21T05:45:51;11.00;9.90
3208;DHT22;1616;52.394;9.756;2022-09-21T05:48:36;11.50;10.50
3208;DHT22;1616;52.394;9.756;2022-09-21T05:54:24;12.80;10.40
3208;DHT22;1616;52.394;9.756;2022-09-21T06:02:34;14.50;9.70
3208;DHT22;1616;52.394;9.756;2022-09-21T06:05:10;15.10;9.40
3208;DHT22;1616;52.394;9.756;2022-09-21T06:07:36;15.60;9.30
3208;DHT22;1616;52.394;9.756;2022-09-21T06:10:01;16.10;8.60
3208;DHT22;1616;52.394;9.756;2022-09-21T06:12:27;16.60;8.20
3208;DHT22;1616;52.394;9.756;2022-09-21T06:14:52;17.00;7.80
3208;DHT22;1616;52.394;9.756;2022-09-21T06:17:21;17.40;5.90
3208;DHT22;1616;52.394;9.756;2022-09-21T06:19:47;17.80;6.20
3208;DHT22;1616;52.394;9.756;2022-09-21T06:22:13;18.40;5.60
3208;DHT22;1616;52.394;9.756;2022-09-21T06:24:38;19.00;3.10
3208;DHT22;1616;52.394;9.756;2022-09-21T06:27:04;19.60;1.00
3208;DHT22;1616;52.394;9.756;2022-09-21T06:29:29;20.10;1.00
3208;DHT22;1616;52.394;9.756;2022-09-21T06:31:55;20.50;1.00
3208;DHT22;1616;52.394;9.756;2022-09-21T06:34:21;20.90;1.00
3208;DHT22;1616;52.394;9.756;2022-09-21T06:36:46;21.30;1.00
3208;DHT22;1616;52.394;9.756;2022-09-21T06:39:12;21.60;1.00
3208;DHT22;1616;52.394;9.756;2022-09-21T06:41:38;22.00;1.00
3208;DHT22;1616;52.394;9.756;2022-09-21T06:44:04;22.30;1.00
3208;DHT22;1616;52.394;9.756;2022-09-21T06:46:29;22.50;1.00
3208;DHT22;1616;52.394;9.756;2022-09-21T06:48:55;22.60;1.00
3208;DHT22;1616;52.394;9.756;2022-09-21T06:51:20;22.90;1.00
3208;DHT22;1616;52.394;9.756;2022-09-21T06:53:48;23.10;1.00
3208;DHT22;1616;52.394;9.756;2022-09-21T06:56:13;23.30;1.00
3208;DHT22;1616;52.394;9.756;2022-09-21T06:58:40;23.50;1.00
3208;DHT22;1616;52.394;9.756;2022-09-21T07:01:07;23.60;1.00
3208;DHT22;1616;52.394;9.756;2022-09-21T07:03:33;23.80;1.00
3208;DHT22;1616;52.394;9.756;2022-09-21T07:05:59;23.90;1.00
3208;DHT22;1616;52.394;9.756;2022-09-21T07:08:25;24.10;1.00
3208;DHT22;1616;52.394;9.756;2022-09-21T07:10:52;24.40;1.00
3208;DHT22;1616;52.394;9.756;2022-09-21T07:13:18;24.60;1.00
3208;DHT22;1616;52.394;9.756;2022-09-21T07:15:45;24.80;1.00
3208;DHT22;1616;52.394;9.756;2022-09-21T07:18:12;25.00;1.00
3208;DHT22;1616;52.394;9.756;2022-09-21T07:20:38;25.10;1.00
3208;DHT22;1616;52.394;9.756;2022-09-21T07:23:16;25.20;1.00
3208;DHT22;1616;52.394;9.756;2022-09-21T07:25:46;25.40;1.00
3208;DHT22;1616;52.394;9.756;2022-09-21T07:28:17;25.60;1.00
3208;DHT22;1616;52.394;9.756;2022-09-21T07:30:43;25.70;1.00
3208;DHT22;1616;52.394;9.756;2022-09-21T07:33:09;25.90;1.00
3208;DHT22;1616;52.394;9.756;2022-09-21T07:35:35;26.00;1.00
3208;DHT22;1616;52.394;9.756;2022-09-21T07:38:03;26.20;1.00
3208;DHT22;1616;52.394;9.756;2022-09-21T07:40:30;26.40;1.00
3208;DHT22;1616;52.394;9.756;2022-09-21T07:43:00;26.60;1.00
3208;DHT22;1616;52.394;9.756;2022-09-21T07:45:29;26.70;1.00
3208;DHT22;1616;52.394;9.756;2022-09-21T07:48:01;26.80;1.00
3208;DHT22;1616;52.394;9.756;2022-09-21T07:50:27;26.90;1.00
3208;DHT22;1616;52.394;9.756;2022-09-21T07:52:52;27.10;1.00
3208;DHT22;1616;52.394;9.756;2022-09-21T07:55:18;27.10;1.00
3208;DHT22;1616;52.394;9.756;2022-09-21T07:57:45;27.20;1.00
3208;DHT22;1616;52.394;9.756;2022-09-21T08:00:32;27.30;1.00
3208;DHT22;1616;52.394;9.756;2022-09-21T08:02:59;27.40;1.00
3208;DHT22;1616;52.394;9.756;2022-09-21T08:05:26;27.60;1.00
3208;DHT22;1616;52.394;9.756;2022-09-21T08:07:54;27.70;1.00
3208;DHT22;1616;52.394;9.756;2022-09-21T08:10:20;27.80;1.00
3208;DHT22;1616;52.394;9.756;2022-09-21T08:12:46;27.90;1.00
3208;DHT22;1616;52.394;9.756;2022-09-21T08:15:12;28.10;1.00
3208;DHT22;1616;52.394;9.756;2022-09-21T08:17:39;28.30;1.00
3208;DHT22;1616;52.394;9.756;2022-09-21T08:20:05;28.50;1.00
3208;DHT22;1616;52.394;9.756;2022-09-21T08:22:31;28.60;1.00
3208;DHT22;1616;52.394;9.756;2022-09-21T08:24:57;28.70;1.00
3208;DHT22;1616;52.394;9.756;2022-09-21T08:27:22;28.80;1.00
3208;DHT22;1616;52.394;9.756;2022-09-21T08:29:50;28.90;1.00
3208;DHT22;1616;52.394;9.756;2022-09-21T08:32:16;29.00;1.00
3208;DHT22;1616;52.394;9.756;2022-09-21T08:34:42;29.10;1.00
3208;DHT22;1616;52.394;9.756;2022-09-21T08:37:07;29.40;1.00
3208;DHT22;1616;52.394;9.756;2022-09-21T08:39:33;29.50;1.00
3208;DHT22;1616;52.394;9.756;2022-09-21T08:42:30;29.60;1.00
3208;DHT22;1616;52.394;9.756;2022-09-21T08:45:05;29.80;1.00
3208;DHT22;1616;52.394;9.756;2022-09-21T08:48:08;29.80;1.00
3208;DHT22;1616;52.394;9.756;2022-09-21T08:50:43;30.00;1.00
3208;DHT22;1616;52.394;9.756;2022-09-21T08:53:20;29.90;1.00
3208;DHT22;1616;52.394;9.756;2022-09-21T08:55:49;30.10;1.00
3208;DHT22;1616;52.394;9.756;2022-09-21T09:00:41;30.30;1.00
3208;DHT22;1616;52.394;9.756;2022-09-21T09:06:01;30.60;1.00
3208;DHT22;1616;52.394;9.756;2022-09-21T09:11:23;30.60;1.00
3208;DHT22;1616;52.394;9.756;2022-09-21T09:14:03;30.70;1.00
3208;DHT22;1616;52.394;9.756;2022-09-21T09:16:39;30.90;1.00
3208;DHT22;1616;52.394;9.756;2022-09-21T09:19:22;31.10;1.00
3208;DHT22;1616;52.394;9.756;2022-09-21T09:21:54;31.30;1.00
3208;DHT22;1616;52.394;9.756;2022-09-21T09:26:59;31.40;1.00
3208;DHT22;1616;52.394;9.756;2022-09-21T09:29:33;31.60;1.00
3208;DHT22;1616;52.394;9.756;2022-09-21T09:32:02;31.80;1.00
3208;DHT22;1616;52.394;9.756;2022-09-21T09:34:49;31.80;1.00
3208;DHT22;1616;52.394;9.756;2022-09-21T09:37:19;31.80;1.00
3208;DHT22;1616;52.394;9.756;2022-09-21T09:39:55;31.80;1.00
3208;DHT22;1616;52.394;9.756;2022-09-21T09:50:36;32.10;1.00
3208;DHT22;1616;52.394;9.756;2022-09-21T09:53:10;32.20;1.00
3208;DHT22;1616;52.394;9.756;2022-09-21T09:55:49;32.30;1.00
3208;DHT22;1616;52.394;9.756;2022-09-21T09:58:36;32.50;1.00
3208;DHT22;1616;52.394;9.756;2022-09-21T10:01:03;32.50;1.00
3208;DHT22;1616;52.394;9.756;2022-09-21T10:03:29;32.30;1.00
3208;DHT22;1616;52.394;9.756;2022-09-21T10:05:55;32.30;1.00
3208;DHT22;1616;52.394;9.756;2022-09-21T10:11:04;32.50;1.00
3208;DHT22;1616;52.394;9.756;2022-09-21T10:13:32;32.60;1.00
3208;DHT22;1616;52.394;9.756;2022-09-21T10:16:10;32.40;1.00
3208;DHT22;1616;52.394;9.756;2022-09-21T10:18:38;32.00;1.00
3208;DHT22;1616;52.394;9.756;2022-09-21T10:21:08;31.90;1.00
3208;DHT22;1616;52.394;9.756;2022-09-21T10:23:46;31.90;1.00
3208;DHT22;1616;52.394;9.756;2022-09-21T10:26:13;32.00;1.00
3208;DHT22;1616;52.394;9.756;2022-09-21T10:29:00;32.10;1.00
3208;DHT22;1616;52.394;9.756;2022-09-21T10:31:28;32.20;1.00
3208;DHT22;1616;52.394;9.756;2022-09-21T10:36:35;32.40;1.00
3208;DHT22;1616;52.394;9.756;2022-09-21T10:39:16;32.50;1.00
3208;DHT22;1616;52.394;9.756;2022-09-21T10:41:47;32.70;1.00
3208;DHT22;1616;52.394;9.756;2022-09-21T10:44:18;32.90;1.00
3208;DHT22;1616;52.394;9.756;2022-09-21T10:46:46;33.00;1.00
3208;DHT22;1616;52.394;9.756;2022-09-21T10:49:19;32.70;1.00
3208;DHT22;1616;52.394;9.756;2022-09-21T10:51:47;32.40;1.00
3208;DHT22;1616;52.394;9.756;2022-09-21T10:54:23;32.30;1.00
3208;DHT22;1616;52.394;9.756;2022-09-21T10:56:53;32.40;1.00
3208;DHT22;1616;52.394;9.756;2022-09-21T10:59:31;32.60;1.00
3208;DHT22;1616;52.394;9.756;2022-09-21T11:01:58;32.90;1.00
3208;DHT22;1616;52.394;9.756;2022-09-21T11:04:47;32.90;1.00
3208;DHT22;1616;52.394;9.756;2022-09-21T11:07:36;32.30;1.00
3208;DHT22;1616;52.394;9.756;2022-09-21T11:12:48;29.80;1.00
3208;DHT22;1616;52.394;9.756;2022-09-21T11:18:27;27.50;1.00
3208;DHT22;1616;52.394;9.756;2022-09-21T11:21:12;26.40;1.00
3208;DHT22;1616;52.394;9.756;2022-09-21T11:24:01;25.40;1.00
3208;DHT22;1616;52.394;9.756;2022-09-21T11:26:49;24.50;1.00
3208;DHT22;1616;52.394;9.756;2022-09-21T11:29:26;24.50;1.00
3208;DHT22;1616;52.394;9.756;2022-09-21T11:32:16;25.00;1.00
3208;DHT22;1616;52.394;9.756;2022-09-21T11:37:44;25.90;1.00
3208;DHT22;1616;52.394;9.756;2022-09-21T11:40:38;25.60;1.00
3208;DHT22;1616;52.394;9.756;2022-09-21T11:43:15;25.60;1.00
3208;DHT22;1616;52.394;9.756;2022-09-21T11:46:02;26.30;1.00
3208;DHT22;1616;52.394;9.756;2022-09-21T11:48:48;27.20;1.00
3208;DHT22;1616;52.394;9.756;2022-09-21T11:56:49;29.70;1.00
3208;DHT22;1616;52.394;9.756;2022-09-21T11:59:34;30.40;1.00
3208;DHT22;1616;52.394;9.756;2022-09-21T12:02:55;31.00;1.00
3208;DHT22;1616;52.394;9.756;2022-09-21T12:05:14;31.20;1.00
3208;DHT22;1616;52.394;9.756;2022-09-21T12:07:57;31.30;1.00
3208;DHT22;1616;52.394;9.756;2022-09-21T12:15:56;29.90;1.00
3208;DHT22;1616;52.394;9.756;2022-09-21T12:18:47;28.80;1.00
3208;DHT22;1616;52.394;9.756;2022-09-21T12:21:20;27.90;1.00
3208;DHT22;1616;52.394;9.756;2022-09-21T12:24:11;27.40;1.00
3208;DHT22;1616;52.394;9.756;2022-09-21T12:26:41;27.40;1.00
3208;DHT22;1616;52.394;9.756;2022-09-21T12:29:16;27.80;1.00
3208;DHT22;1616;52.394;9.756;2022-09-21T12:35:02;28.40;1.00
3208;DHT22;1616;52.394;9.756;2022-09-21T12:37:36;28.40;1.00
3208;DHT22;1616;52.394;9.756;2022-09-21T12:40:11;28.10;1.00
3208;DHT22;1616;52.394;9.756;2022-09-21T12:42:54;27.60;1.00
3208;DHT22;1616;52.394;9.756;2022-09-21T12:45:29;26.80;1.00
3208;DHT22;1616;52.394;9.756;2022-09-21T12:50:38;25.20;1.00
3208;DHT22;1616;52.394;9.756;2022-09-21T12:53:09;24.50;1.00
3208;DHT22;1616;52.394;9.756;2022-09-21T12:55:49;23.90;1.00
3208;DHT22;1616;52.394;9.756;2022-09-21T12:58:33;23.40;1.00
3208;DHT22;1616;52.394;9.756;2022-09-21T13:03:59;22.30;1.00
3208;DHT22;1616;52.394;9.756;2022-09-21T13:06:36;21.90;1.00
3208;DHT22;1616;52.394;9.756;2022-09-21T13:09:04;21.50;1.00
3208;DHT22;1616;52.394;9.756;2022-09-21T13:11:31;21.20;1.00
3208;DHT22;1616;52.394;9.756;2022-09-21T13:14:00;20.90;1.00
3208;DHT22;1616;52.394;9.756;2022-09-21T13:16:31;20.70;1.00
3208;DHT22;1616;52.394;9.756;2022-09-21T13:21:37;20.40;1.00
3208;DHT22;1616;52.394;9.756;2022-09-21T13:24:06;20.20;1.00
3208;DHT22;1616;52.394;9.756;2022-09-21T13:26:55;20.10;1.00
3208;DHT22;1616;52.394;9.756;2022-09-21T13:34:36;19.70;1.00
3208;DHT22;1616;52.394;9.756;2022-09-21T13:47:33;20.20;1.00
3208;DHT22;1616;52.394;9.756;2022-09-21T13:50:24;20.40;1.00
3208;DHT22;1616;52.394;9.756;2022-09-21T13:52:56;20.60;1.00
3208;DHT22;1616;52.394;9.756;2022-09-21T13:55:32;20.70;1.00
3208;DHT22;1616;52.394;9.756;2022-09-21T14:01:00;20.90;1.00
3208;DHT22;1616;52.394;9.756;2022-09-21T14:03:54;21.10;1.00
3208;DHT22;1616;52.394;9.756;2022-09-21T14:06:34;21.10;1.00
3208;DHT22;1616;52.394;9.756;2022-09-21T14:09:19;21.20;1.00
3208;DHT22;1616;52.394;9.756;2022-09-21T14:11:53;21.30;1.00
3208;DHT22;1616;52.394;9.756;2022-09-21T14:14:30;21.40;1.00
3208;DHT22;1616;52.394;9.756;2022-09-21T14:17:01;21.50;1.00
3208;DHT22;1616;52.394;9.756;2022-09-21T14:24:37;21.60;1.00
3208;DHT22;1616;52.394;9.756;2022-09-21T14:27:29;21.50;1.00
3208;DHT22;1616;52.394;9.756;2022-09-21T14:30:21;21.60;1.00
3208;DHT22;1616;52.394;9.756;2022-09-21T14:32:50;21.60;1.00
3208;DHT22;1616;52.394;9.756;2022-09-21T14:35:22;21.60;1.00
3208;DHT22;1616;52.394;9.756;2022-09-21T14:37:57;21.40;1.00
3208;DHT22;1616;52.394;9.756;2022-09-21T14:40:33;21.20;1.00
3208;DHT22;1616;52.394;9.756;2022-09-21T14:43:14;20.90;1.00
3208;DHT22;1616;52.394;9.756;2022-09-21T14:45:51;20.60;1.00
3208;DHT22;1616;52.394;9.756;2022-09-21T14:52:05;20.00;1.00
3208;DHT22;1616;52.394;9.756;2022-09-21T14:54:50;19.80;1.00
3208;DHT22;1616;52.394;9.756;2022-09-21T15:00:21;19.40;1.00
3208;DHT22;1616;52.394;9.756;2022-09-21T15:06:01;19.20;1.00
3208;DHT22;1616;52.394;9.756;2022-09-21T15:12:22;19.20;1.00
3208;DHT22;1616;52.394;9.756;2022-09-21T15:15:22;19.10;1.00
3208;DHT22;1616;52.394;9.756;2022-09-21T15:17:56;19.00;1.00
3208;DHT22;1616;52.394;9.756;2022-09-21T15:20:25;18.90;1.00
3208;DHT22;1616;52.394;9.756;2022-09-21T15:22:58;18.90;1.00
3208;DHT22;1616;52.394;9.756;2022-09-21T15:25:25;18.80;1.00
3208;DHT22;1616;52.394;9.756;2022-09-21T15:27:51;18.80;1.00
3208;DHT22;1616;52.394;9.756;2022-09-21T15:30:26;18.80;1.00
3208;DHT22;1616;52.394;9.756;2022-09-21T15:32:56;18.80;1.00
3208;DHT22;1616;52.394;9.756;2022-09-21T15:35:24;18.80;1.00
3208;DHT22;1616;52.394;9.756;2022-09-21T15:37:52;18.80;1.00
3208;DHT22;1616;52.394;9.756;2022-09-21T15:43:18;18.80;1.00
3208;DHT22;1616;52.394;9.756;2022-09-21T15:46:05;18.80;1.00
3208;DHT22;1616;52.394;9.756;2022-09-21T15:48:38;18.80;1.00
3208;DHT22;1616;52.394;9.756;2022-09-21T15:51:17;18.70;1.00
3208;DHT22;1616;52.394;9.756;2022-09-21T15:53:50;18.60;1.00
3208;DHT22;1616;52.394;9.756;2022-09-21T15:56:19;18.60;1.00
3208;DHT22;1616;52.394;9.756;2022-09-21T15:58:47;18.50;1.00
3208;DHT22;1616;52.394;9.756;2022-09-21T16:01:16;18.40;1.00
3208;DHT22;1616;52.394;9.756;2022-09-21T16:03:44;18.30;1.00
3208;DHT22;1616;52.394;9.756;2022-09-21T16:06:38;18.30;1.00
3208;DHT22;1616;52.394;9.756;2022-09-21T16:11:51;18.10;1.00
3208;DHT22;1616;52.394;9.756;2022-09-21T16:14:18;18.00;1.00
3208;DHT22;1616;52.394;9.756;2022-09-21T16:17:25;17.90;1.00
3208;DHT22;1616;52.394;9.756;2022-09-21T16:22:37;17.70;1.00
3208;DHT22;1616;52.394;9.756;2022-09-21T16:25:28;17.60;1.00
3208;DHT22;1616;52.394;9.756;2022-09-21T16:28:01;17.50;1.00
3208;DHT22;1616;52.394;9.756;2022-09-21T16:30:48;17.40;1.00
3208;DHT22;1616;52.394;9.756;2022-09-21T16:36:01;17.20;1.00
3208;DHT22;1616;52.394;9.756;2022-09-21T16:38:27;17.10;1.00
3208;DHT22;1616;52.394;9.756;2022-09-21T16:40:53;17.00;1.00
3208;DHT22;1616;52.394;9.756;2022-09-21T16:43:19;16.90;1.00
3208;DHT22;1616;52.394;9.756;2022-09-21T16:45:47;16.80;1.00
3208;DHT22;1616;52.394;9.756;2022-09-21T16:48:13;16.70;1.00
3208;DHT22;1616;52.394;9.756;2022-09-21T16:50:38;16.60;1.00
3208;DHT22;1616;52.394;9.756;2022-09-21T16:53:07;16.50;1.00
3208;DHT22;1616;52.394;9.756;2022-09-21T16:55:33;16.40;1.00
3208;DHT22;1616;52.394;9.756;2022-09-21T16:57:59;16.30;1.00
3208;DHT22;1616;52.394;9.756;2022-09-21T17:00:29;16.10;1.00
3208;DHT22;1616;52.394;9.756;2022-09-21T17:02:55;16.10;1.00
3208;DHT22;1616;52.394;9.756;2022-09-21T17:05:21;16.00;1.00
3208;DHT22;1616;52.394;9.756;2022-09-21T17:07:54;15.90;1.00
3208;DHT22;1616;52.394;9.756;2022-09-21T17:10:23;15.80;1.00
3208;DHT22;1616;52.394;9.756;2022-09-21T17:12:54;15.70;1.00
3208;DHT22;1616;52.394;9.756;2022-09-21T17:15:20;15.60;1.00
3208;DHT22;1616;52.394;9.756;2022-09-21T17:17:47;15.40;1.00
3208;DHT22;1616;52.394;9.756;2022-09-21T17:20:21;15.40;1.00
3208;DHT22;1616;52.394;9.756;2022-09-21T17:22:47;15.20;1.00
3208;DHT22;1616;52.394;9.756;2022-09-21T17:25:13;15.20;1.00
3208;DHT22;1616;52.394;9.756;2022-09-21T17:27:39;15.00;1.00
3208;DHT22;1616;52.394;9.756;2022-09-21T17:30:13;14.90;1.00
3208;DHT22;1616;52.394;9.756;2022-09-21T17:32:40;14.80;1.00
3208;DHT22;1616;52.394;9.756;2022-09-21T17:37:40;14.60;1.00
3208;DHT22;1616;52.394;9.756;2022-09-21T17:40:06;14.50;1.00
3208;DHT22;1616;52.394;9.756;2022-09-21T17:42:38;14.40;1.00
3208;DHT22;1616;52.394;9.756;2022-09-21T17:47:32;14.20;1.00
3208;DHT22;1616;52.394;9.756;2022-09-21T17:50:07;14.10;1.00
3208;DHT22;1616;52.394;9.756;2022-09-21T17:52:40;14.00;1.00
3208;DHT22;1616;52.394;9.756;2022-09-21T17:55:25;14.00;1.00
3208;DHT22;1616;52.394;9.756;2022-09-21T18:03:30;13.70;1.00
3208;DHT22;1616;52.394;9.756;2022-09-21T18:05:57;13.60;1.00
3208;DHT22;1616;52.394;9.756;2022-09-21T18:08:30;13.50;1.00
3208;DHT22;1616;52.394;9.756;2022-09-21T18:17:07;13.30;1.00
3208;DHT22;1616;52.394;9.756;2022-09-21T18:22:17;13.10;1.00
3208;DHT22;1616;52.394;9.756;2022-09-21T18:24:55;13.00;1.00
3208;DHT22;1616;52.394;9.756;2022-09-21T18:27:22;13.00;1.00
3208;DHT22;1616;52.394;9.756;2022-09-21T18:29:49;12.90;1.00
3208;DHT22;1616;52.394;9.756;2022-09-21T18:35:56;12.70;1.00
3208;DHT22;1616;52.394;9.756;2022-09-21T18:38:35;12.70;1.00
3208;DHT22;1616;52.394;9.756;2022-09-21T18:46:49;12.60;1.00
3208;DHT22;1616;52.394;9.756;2022-09-21T18:49:42;12.40;1.00
3208;DHT22;1616;52.394;9.756;2022-09-21T18:52:16;12.40;1.00
3208;DHT22;1616;52.394;9.756;2022-09-21T18:54:44;12.30;1.00
3208;DHT22;1616;52.394;9.756;2022-09-21T18:57:12;12.30;1.00
3208;DHT22;1616;52.394;9.756;2022-09-21T18:59:38;12.30;1.00
3208;DHT22;1616;52.394;9.756;2022-09-21T19:02:10;12.20;1.00
3208;DHT22;1616;52.394;9.756;2022-09-21T19:04:42;12.20;1.00
3208;DHT22;1616;52.394;9.756;2022-09-21T19:07:23;12.10;1.00
3208;DHT22;1616;52.394;9.756;2022-09-21T19:09:55;12.00;1.00
3208;DHT22;1616;52.394;9.756;2022-09-21T19:18:44;11.90;1.00
3208;DHT22;1616;52.394;9.756;2022-09-21T19:21:26;11.80;1.00
3208;DHT22;1616;52.394;9.756;2022-09-21T19:27:25;11.70;1.00
3208;DHT22;1616;52.394;9.756;2022-09-21T19:32:45;11.60;1.00
3208;DHT22;1616;52.394;9.756;2022-09-21T19:35:16;11.60;1.00
3208;DHT22;1616;52.394;9.756;2022-09-21T19:37:42;11.60;1.00
3208;DHT22;1616;52.394;9.756;2022-09-21T19:40:08;11.50;1.00